createdAt,value
2022-12-03T00:02:16.598Z,100931.16
2022-12-03T00:04:45.842Z,100923.31
2022-12-03T00:07:12.456Z,100918.25
2022-12-03T00:09:40.311Z,100923.53
2022-12-03T00:12:07.227Z,100917.34
2022-12-03T00:14:33.813Z,100911.13
2022-12-03T00:17:01.448Z,100921.66
2022-12-03T00:19:28.400Z,100919.75
2022-12-03T00:21:56.393Z,100917.25
2022-12-03T00:24:22.988Z,100916.66
2022-12-03T00:26:49.623Z,100922.81
2022-12-03T00:29:17.727Z,100931.28
2022-12-03T00:31:45.657Z,100919.13
2022-12-03T00:34:12.561Z,100911.38
2022-12-03T00:36:39.176Z,100914.06
2022-12-03T00:39:05.837Z,100919.94
2022-12-03T00:41:32.419Z,100916.66
2022-12-03T00:43:59.138Z,100921.03
2022-12-03T00:46:26.117Z,100918.47
2022-12-03T00:48:53.393Z,100905.53
2022-12-03T00:51:22.634Z,100911.88
2022-12-03T00:53:52.676Z,100903.94
2022-12-03T00:56:19.257Z,100908.38
2022-12-03T00:58:48.566Z,100911.88
2022-12-03T01:01:15.216Z,100901.44
2022-12-03T01:03:41.871Z,100906.00
2022-12-03T01:06:08.599Z,100905.03
2022-12-03T01:08:35.363Z,100899.66
2022-12-03T01:11:03.245Z,100901.25
2022-12-03T01:13:29.966Z,100902.53
2022-12-03T01:15:56.642Z,100894.84
2022-12-03T01:18:23.568Z,100906.00
2022-12-03T01:20:50.147Z,100889.63
2022-12-03T01:23:16.784Z,100899.06
2022-12-03T01:25:43.358Z,100897.19
2022-12-03T01:28:09.951Z,100901.34
2022-12-03T01:30:57.656Z,100905.63
2022-12-03T01:33:24.253Z,100905.81
2022-12-03T01:35:50.988Z,100902.97
2022-12-03T01:38:17.530Z,100895.97
2022-12-03T01:40:44.241Z,100902.97
2022-12-03T01:43:13.673Z,100894.41
2022-12-03T01:45:41.755Z,100898.66
2022-12-03T01:48:12.581Z,100902.97
2022-12-03T01:50:39.206Z,100897.19
2022-12-03T01:53:05.932Z,100895.22
2022-12-03T01:55:32.754Z,100892.72
2022-12-03T01:58:01.134Z,100893.41
2022-12-03T02:00:29.290Z,100887.38
2022-12-03T02:03:02.266Z,100897.09
2022-12-03T02:05:31.476Z,100893.50
2022-12-03T02:07:59.464Z,100890.03
2022-12-03T02:10:35.989Z,100893.69
2022-12-03T02:13:07.815Z,100888.72
2022-12-03T02:15:37.088Z,100895.47
2022-12-03T02:18:03.846Z,100880.78
2022-12-03T02:20:36.893Z,100885.22
2022-12-03T02:23:12.107Z,100879.88
2022-12-03T02:25:38.956Z,100882.66
2022-12-03T02:28:10.734Z,100887.09
2022-12-03T02:30:37.757Z,100886.13
2022-12-03T02:33:04.906Z,100891.50
2022-12-03T02:35:38.079Z,100886.25
2022-12-03T02:38:16.588Z,100889.44
2022-12-03T02:40:45.923Z,100890.41
2022-12-03T02:43:15.053Z,100884.53
2022-12-03T02:45:45.678Z,100888.72
2022-12-03T02:48:28.883Z,100884.38
2022-12-03T02:51:00.405Z,100874.03
2022-12-03T02:53:32.825Z,100879.00
2022-12-03T02:56:01.756Z,100874.66
2022-12-03T02:58:31.003Z,100875.50
2022-12-03T03:00:59.562Z,100872.84
2022-12-03T03:03:30.185Z,100880.50
2022-12-03T03:05:58.040Z,100880.38
2022-12-03T03:08:28.284Z,100873.53
2022-12-03T03:10:57.823Z,100872.75
2022-12-03T03:13:24.726Z,100875.22
2022-12-03T03:15:51.500Z,100878.63
2022-12-03T03:18:19.297Z,100877.03
2022-12-03T03:20:46.214Z,100868.19
2022-12-03T03:23:13.101Z,100870.97
2022-12-03T03:25:49.846Z,100870.97
2022-12-03T03:28:16.916Z,100865.00
2022-12-03T03:30:44.403Z,100861.72
2022-12-03T03:33:14.400Z,100872.31
2022-12-03T03:35:41.930Z,100861.03
2022-12-03T03:38:09.851Z,100867.06
2022-12-03T03:40:39.773Z,100855.75
2022-12-03T03:43:07.247Z,100852.56
2022-12-03T03:45:33.945Z,100854.25
2022-12-03T03:48:01.245Z,100846.22
2022-12-03T03:50:31.499Z,100851.56
2022-12-03T03:53:01.325Z,100852.75
2022-12-03T03:55:29.080Z,100837.44
2022-12-03T03:57:56.094Z,100847.69
2022-12-03T04:00:23.077Z,100844.81
2022-12-03T04:02:49.740Z,100845.00
2022-12-03T04:05:20.282Z,100835.38
2022-12-03T04:07:48.394Z,100838.84
2022-12-03T04:10:35.905Z,100840.81
2022-12-03T04:13:02.687Z,100824.25
2022-12-03T04:15:30.783Z,100827.78
2022-12-03T04:18:16.184Z,100823.34
2022-12-03T04:20:44.234Z,100838.13
2022-12-03T04:23:14.215Z,100833.75
2022-12-03T04:25:59.729Z,100840.81
2022-12-03T04:28:44.719Z,100837.25
2022-12-03T04:31:29.754Z,100830.22
2022-12-03T04:34:15.024Z,100837.97
2022-12-03T04:36:41.679Z,100835.53
2022-12-03T04:39:08.385Z,100831.28
2022-12-03T04:41:35.023Z,100833.97
2022-12-03T04:44:21.684Z,100827.88
2022-12-03T04:46:48.471Z,100832.34
2022-12-03T04:49:15.124Z,100837.34
2022-12-03T04:51:41.758Z,100834.75
2022-12-03T04:54:08.443Z,100833.06
2022-12-03T04:56:36.060Z,100833.44
2022-12-03T04:59:02.740Z,100835.22
2022-12-03T05:01:29.447Z,100834.59
2022-12-03T05:03:58.178Z,100826.66
2022-12-03T05:06:25.239Z,100835.41
2022-12-03T05:08:52.132Z,100824.16
2022-12-03T05:11:18.729Z,100833.97
2022-12-03T05:13:45.411Z,100834.59
2022-12-03T05:16:13.676Z,100838.94
2022-12-03T05:18:42.464Z,100839.03
2022-12-03T05:21:09.078Z,100834.69
2022-12-03T05:23:37.030Z,100833.88
2022-12-03T05:26:03.653Z,100832.19
2022-12-03T05:28:30.526Z,100830.09
2022-12-03T05:30:57.230Z,100834.16
2022-12-03T05:33:23.989Z,100830.75
2022-12-03T05:35:50.796Z,100828.09
2022-12-03T05:38:17.454Z,100824.72
2022-12-03T05:40:44.358Z,100823.81
2022-12-03T05:43:11.061Z,100827.22
2022-12-03T05:45:40.499Z,100825.50
2022-12-03T05:48:10.082Z,100830.75
2022-12-03T05:50:38.854Z,100831.66
2022-12-03T05:53:05.768Z,100825.50
2022-12-03T05:55:32.404Z,100825.50
2022-12-03T05:58:00.256Z,100824.81
2022-12-03T06:00:29.688Z,100831.66
2022-12-03T06:02:56.912Z,100821.94
2022-12-03T06:05:25.636Z,100827.41
2022-12-03T06:07:53.404Z,100826.31
2022-12-03T06:10:24.730Z,100826.41
2022-12-03T06:12:51.598Z,100831.47
2022-12-03T06:15:19.323Z,100841.09
2022-12-03T06:17:47.818Z,100828.81
2022-12-03T06:20:17.476Z,100829.00
2022-12-03T06:22:44.674Z,100825.50
2022-12-03T06:25:12.890Z,100833.19
2022-12-03T06:27:39.579Z,100834.06
2022-12-03T06:30:08.651Z,100831.38
2022-12-03T06:32:36.237Z,100834.97
2022-12-03T06:35:02.885Z,100827.41
2022-12-03T06:37:29.533Z,100824.53
2022-12-03T06:39:56.159Z,100838.59
2022-12-03T06:42:22.805Z,100833.25
2022-12-03T06:44:49.444Z,100826.59
2022-12-03T06:47:16.052Z,100830.09
2022-12-03T06:49:42.763Z,100828.47
2022-12-03T06:52:09.457Z,100824.09
2022-12-03T06:54:36.100Z,100826.59
2022-12-03T06:57:03.868Z,100829.47
2022-12-03T06:59:34.261Z,100826.69
2022-12-03T07:02:01.325Z,100824.19
2022-12-03T07:04:28.312Z,100823.28
2022-12-03T07:06:55.048Z,100831.03
2022-12-03T07:09:21.717Z,100824.97
2022-12-03T07:11:48.363Z,100825.16
2022-12-03T07:14:15.235Z,100830.50
2022-12-03T07:16:43.612Z,100824.72
2022-12-03T07:19:10.661Z,100823.13
2022-12-03T07:21:40.478Z,100822.22
2022-12-03T07:24:07.467Z,100820.69
2022-12-03T07:26:34.627Z,100818.13
2022-12-03T07:29:01.330Z,100817.34
2022-12-03T07:31:28.125Z,100813.22
2022-12-03T07:33:54.741Z,100810.81
2022-12-03T07:36:21.370Z,100816.91
2022-12-03T07:38:49.949Z,100819.72
2022-12-03T07:41:20.459Z,100823.22
2022-12-03T07:43:47.161Z,100820.72
2022-12-03T07:46:14.975Z,100834.88
2022-12-03T07:48:43.082Z,100821.16
2022-12-03T07:51:14.267Z,100816.88
2022-12-03T07:53:42.199Z,100823.28
2022-12-03T07:56:11.538Z,100818.75
2022-12-03T07:58:38.198Z,100816.16
2022-12-03T08:01:04.959Z,100825.78
2022-12-03T08:03:32.015Z,100822.41
2022-12-03T08:05:58.615Z,100816.59
2022-12-03T08:08:26.750Z,100807.94
2022-12-03T08:10:53.540Z,100805.44
2022-12-03T08:13:21.307Z,100812.31
2022-12-03T08:15:47.965Z,100800.19
2022-12-03T08:18:18.016Z,100812.41
2022-12-03T08:20:48.134Z,100806.50
2022-12-03T08:23:21.036Z,100810.91
2022-12-03T08:25:49.318Z,100811.84
2022-12-03T08:28:22.090Z,100811.22
2022-12-03T08:31:12.587Z,100811.31
2022-12-03T08:33:40.821Z,100808.91
2022-12-03T08:36:19.373Z,100800.31
2022-12-03T08:38:51.146Z,100800.22
2022-12-03T08:41:40.975Z,100799.53
2022-12-03T08:44:32.575Z,100787.56
2022-12-03T08:47:22.470Z,100786.06
2022-12-03T08:49:56.108Z,100781.66
2022-12-03T08:52:32.566Z,100784.44
2022-12-03T08:55:03.285Z,100793.50
2022-12-03T08:57:32.749Z,100790.03
2022-12-03T08:59:59.529Z,100793.03
2022-12-03T09:02:33.508Z,100793.03
2022-12-03T09:05:16.413Z,100787.00
2022-12-03T09:07:43.139Z,100803.91
2022-12-03T09:10:10.015Z,100801.56
2022-12-03T09:12:36.796Z,100805.03
2022-12-03T09:15:03.808Z,100801.72
2022-12-03T09:17:30.367Z,100799.13
2022-12-03T09:19:57.050Z,100788.22
2022-12-03T09:22:23.716Z,100778.28
2022-12-03T09:24:50.359Z,100785.00
2022-12-03T09:27:17.014Z,100795.03
2022-12-03T09:29:43.638Z,100787.34
2022-12-03T09:32:15.097Z,100780.41
2022-12-03T09:34:47.223Z,100779.09
2022-12-03T09:37:13.867Z,100783.63
2022-12-03T09:39:40.518Z,100788.25
2022-12-03T09:42:07.528Z,100783.78
2022-12-03T09:44:34.967Z,100788.00
2022-12-03T09:47:04.796Z,100791.44
2022-12-03T09:49:35.914Z,100791.38
2022-12-03T09:52:05.040Z,100787.81
2022-12-03T09:54:32.797Z,100788.06
2022-12-03T09:57:02.710Z,100789.47
2022-12-03T09:59:34.900Z,100776.59
2022-12-03T10:02:02.952Z,100795.72
2022-12-03T10:04:30.573Z,100782.44
2022-12-03T10:06:58.976Z,100793.88
2022-12-03T10:09:28.574Z,100781.94
2022-12-03T10:11:59.975Z,100784.94
2022-12-03T10:28:00.783Z,100780.53
2022-12-03T10:33:17.311Z,100771.59
2022-12-03T10:35:45.573Z,100771.84
2022-12-03T10:38:17.870Z,100768.56
2022-12-03T10:40:45.208Z,100765.53
2022-12-03T10:45:51.509Z,100752.44
2022-12-03T10:48:27.632Z,100748.00
2022-12-03T10:51:03.589Z,100741.91
2022-12-03T10:53:32.982Z,100740.13
2022-12-03T10:56:02.994Z,100741.88
2022-12-03T10:58:32.038Z,100741.03
2022-12-03T11:01:01.047Z,100742.22
2022-12-03T11:03:30.603Z,100734.72
2022-12-03T11:06:00.333Z,100733.03
2022-12-03T11:08:29.382Z,100731.91
2022-12-03T11:11:07.378Z,100725.97
2022-12-03T11:13:33.863Z,100732.00
2022-12-03T11:16:02.139Z,100731.25
2022-12-03T11:18:34.720Z,100725.41
2022-12-03T11:21:05.502Z,100725.66
2022-12-03T11:23:44.239Z,100722.06
2022-12-03T11:26:19.990Z,100713.38
2022-12-03T11:28:46.660Z,100718.94
2022-12-03T11:31:48.243Z,100720.78
2022-12-03T11:34:20.902Z,100710.72
2022-12-03T11:37:13.535Z,100713.50
2022-12-03T11:39:52.950Z,100712.41
2022-12-03T11:42:28.706Z,100710.50
2022-12-03T11:45:04.169Z,100715.97
2022-12-03T11:47:42.573Z,100707.53
2022-12-03T11:50:39.705Z,100713.47
2022-12-03T11:53:16.545Z,100704.13
2022-12-03T11:55:49.055Z,100702.47
2022-12-03T11:58:29.208Z,100708.06
2022-12-03T12:00:59.080Z,100700.28
2022-12-03T12:03:33.910Z,100696.88
2022-12-03T12:06:05.506Z,100702.13
2022-12-03T12:08:33.982Z,100699.72
2022-12-03T12:11:01.196Z,100700.19
2022-12-03T12:13:48.017Z,100705.81
2022-12-03T12:16:37.646Z,100709.66
2022-12-03T12:19:43.310Z,100709.72
2022-12-03T12:22:20.320Z,100710.84
2022-12-03T12:24:51.953Z,100704.97
2022-12-03T12:27:32.145Z,100700.25
2022-12-03T12:30:01.400Z,100707.41
2022-12-03T12:32:35.284Z,100687.66
2022-12-03T12:35:21.770Z,100686.97
2022-12-03T12:38:06.748Z,100683.78
2022-12-03T12:40:35.986Z,100676.88
2022-12-03T12:43:10.253Z,100678.59
2022-12-03T12:45:41.927Z,100677.56
2022-12-03T12:48:25.877Z,100677.63
2022-12-03T12:51:01.392Z,100683.69
2022-12-03T12:53:32.975Z,100674.22
2022-12-03T12:56:16.237Z,100680.47
2022-12-03T12:58:42.997Z,100677.09
2022-12-03T13:01:20.569Z,100685.84
2022-12-03T13:03:50.668Z,100682.50
2022-12-03T13:06:17.859Z,100673.63
2022-12-03T13:08:47.268Z,100676.22
2022-12-03T13:11:30.166Z,100686.75
2022-12-03T13:13:56.749Z,100688.28
2022-12-03T13:16:29.058Z,100685.50
2022-12-03T13:18:57.666Z,100681.31
2022-12-03T13:21:40.498Z,100680.56
2022-12-03T13:24:32.377Z,100689.94
2022-12-03T13:27:08.069Z,100681.06
2022-12-03T13:29:36.262Z,100670.53
2022-12-03T13:32:11.767Z,100680.16
2022-12-03T13:34:38.491Z,100674.16
2022-12-03T13:37:23.320Z,100677.72
2022-12-03T13:39:52.675Z,100677.72
2022-12-03T13:42:41.573Z,100684.00
2022-12-03T13:45:13.958Z,100679.03
2022-12-03T13:47:42.233Z,100672.06
2022-12-03T13:50:34.472Z,100670.34
2022-12-03T13:53:03.424Z,100668.72
2022-12-03T13:55:31.947Z,100667.09
2022-12-03T13:57:59.115Z,100666.81
2022-12-03T14:00:25.942Z,100665.28
2022-12-03T14:02:52.746Z,100674.66
2022-12-03T14:05:19.548Z,100676.31
2022-12-03T14:07:47.635Z,100661.59
2022-12-03T14:10:14.403Z,100661.50
2022-12-03T14:12:41.017Z,100662.31
2022-12-03T14:15:11.776Z,100662.97
2022-12-03T14:17:39.439Z,100673.00
2022-12-03T14:20:08.287Z,100671.81
2022-12-03T14:22:38.025Z,100665.59
2022-12-03T14:25:06.040Z,100663.91
2022-12-03T14:27:32.689Z,100663.00
2022-12-03T14:29:59.878Z,100663.59
2022-12-03T14:32:26.626Z,100655.91
2022-12-03T14:34:53.342Z,100652.28
2022-12-03T14:37:20.197Z,100653.97
2022-12-03T14:39:46.856Z,100659.59
2022-12-03T14:42:14.550Z,100651.91
2022-12-03T14:44:52.058Z,100655.38
2022-12-03T14:47:22.701Z,100655.38
2022-12-03T14:49:50.647Z,100658.66
2022-12-03T14:52:18.349Z,100663.00
2022-12-03T14:54:45.240Z,100656.69
2022-12-03T14:57:13.782Z,100664.44
2022-12-03T14:59:44.426Z,100660.03
2022-12-03T15:02:13.172Z,100661.75
2022-12-03T15:04:41.061Z,100665.28
2022-12-03T15:07:08.367Z,100661.69
2022-12-03T15:09:35.508Z,100671.38
2022-12-03T15:12:02.149Z,100678.03
2022-12-03T15:14:31.144Z,100669.53
2022-12-03T15:16:57.955Z,100670.19
2022-12-03T15:19:24.751Z,100678.84
2022-12-03T15:21:51.345Z,100680.56
2022-12-03T15:24:17.969Z,100677.16
2022-12-03T15:26:45.970Z,100677.16
2022-12-03T15:29:12.615Z,100683.16
2022-12-03T15:31:39.288Z,100674.47
2022-12-03T15:34:06.012Z,100684.19
2022-12-03T15:36:32.785Z,100678.75
2022-12-03T15:38:59.474Z,100678.19
2022-12-03T15:41:29.727Z,100671.22
2022-12-03T15:43:58.621Z,100666.19
2022-12-03T15:46:27.843Z,100675.50
2022-12-03T15:48:55.682Z,100673.81
2022-12-03T15:51:24.139Z,100676.41
2022-12-03T15:53:51.150Z,100684.09
2022-12-03T15:56:17.967Z,100672.25
2022-12-03T15:58:44.916Z,100674.91
2022-12-03T16:01:14.806Z,100683.38
2022-12-03T16:03:41.977Z,100672.91
2022-12-03T16:06:09.202Z,100674.78
2022-12-03T16:08:35.990Z,100678.19
2022-12-03T16:11:02.645Z,100672.31
2022-12-03T16:13:30.673Z,100666.28
2022-12-03T16:15:57.337Z,100670.72
2022-12-03T16:18:24.280Z,100667.28
2022-12-03T16:20:52.350Z,100668.13
2022-12-03T16:23:19.100Z,100667.28
2022-12-03T16:25:45.716Z,100655.09
2022-12-03T16:28:12.332Z,100664.63
2022-12-03T16:30:39.783Z,100661.28
2022-12-03T16:33:06.978Z,100657.00
2022-12-03T16:35:34.736Z,100653.75
2022-12-03T16:38:01.442Z,100654.78
2022-12-03T16:40:28.062Z,100652.81
2022-12-03T16:42:54.621Z,100647.69
2022-12-03T16:45:29.887Z,100657.00
2022-12-03T16:47:57.869Z,100651.06
2022-12-03T16:50:29.982Z,100658.09
2022-12-03T16:52:57.720Z,100650.22
2022-12-03T16:55:24.927Z,100647.69
2022-12-03T16:57:52.922Z,100653.59
2022-12-03T17:00:23.201Z,100653.81
2022-12-03T17:02:49.883Z,100647.53
2022-12-03T17:05:18.134Z,100643.28
2022-12-03T17:07:44.927Z,100654.66
2022-12-03T17:10:11.723Z,100654.78
2022-12-03T17:13:07.573Z,100649.38
2022-12-03T17:15:24.930Z,100652.28
2022-12-03T17:17:51.606Z,100648.72
2022-12-03T17:20:18.813Z,100641.69
2022-12-03T17:22:45.778Z,100650.41
2022-12-03T17:25:12.457Z,100640.09
2022-12-03T17:27:45.029Z,100640.94
2022-12-03T17:30:12.885Z,100640.94
2022-12-03T17:32:39.889Z,100632.25
2022-12-03T17:35:07.206Z,100632.25
2022-12-03T17:37:34.926Z,100633.31
2022-12-03T17:40:02.040Z,100630.78
2022-12-03T17:42:28.639Z,100633.38
2022-12-03T17:44:55.218Z,100634.41
2022-12-03T17:47:21.853Z,100638.84
2022-12-03T17:49:49.114Z,100634.47
2022-12-03T17:55:27.855Z,100634.63
2022-12-03T18:00:33.726Z,100624.19
2022-12-03T18:03:04.451Z,100606.78
2022-12-03T18:05:33.141Z,100618.31
2022-12-03T18:07:59.861Z,100615.88
2022-12-03T18:10:31.974Z,100614.28
2022-12-03T18:13:02.017Z,100610.75
2022-12-03T18:15:29.717Z,100616.03
2022-12-03T18:17:56.340Z,100614.28
2022-12-03T18:20:22.987Z,100619.41
2022-12-03T18:22:49.904Z,100617.88
2022-12-03T18:25:18.237Z,100623.06
2022-12-03T18:27:47.224Z,100620.47
2022-12-03T18:30:14.205Z,100616.13
2022-12-03T18:32:40.946Z,100617.94
2022-12-03T18:35:07.897Z,100613.69
2022-12-03T18:37:34.881Z,100614.66
2022-12-03T18:40:12.073Z,100618.09
2022-12-03T18:42:39.564Z,100612.94
2022-12-03T18:45:07.209Z,100613.75
2022-12-03T18:47:33.981Z,100616.44
2022-12-03T18:50:00.875Z,100605.16
2022-12-03T18:52:27.594Z,100608.66
2022-12-03T18:54:55.469Z,100609.56
2022-12-03T18:57:22.221Z,100605.31
2022-12-03T18:59:49.042Z,100610.50
2022-12-03T19:02:53.798Z,100606.22
2022-12-03T19:05:09.304Z,100614.88
2022-12-03T19:07:38.269Z,100612.34
2022-12-03T19:10:05.560Z,100622.78
2022-12-03T19:12:32.963Z,100610.84
2022-12-03T19:14:59.623Z,100613.38
2022-12-03T19:17:27.440Z,100610.78
2022-12-03T19:19:55.475Z,100607.09
2022-12-03T19:22:23.271Z,100610.63
2022-12-03T19:24:52.190Z,100598.56
2022-12-03T19:27:19.116Z,100598.66
2022-12-03T19:29:50.898Z,100598.66
2022-12-03T19:32:17.521Z,100608.19
2022-12-03T19:34:45.841Z,100604.63
2022-12-03T19:37:12.645Z,100609.06
2022-12-03T19:39:39.663Z,100605.66
2022-12-03T19:42:08.601Z,100616.13
2022-12-03T19:44:35.509Z,100622.09
2022-12-03T19:47:02.147Z,100617.00
2022-12-03T19:49:30.060Z,100613.72
2022-12-03T19:51:58.175Z,100614.53
2022-12-03T19:54:25.317Z,100607.59
2022-12-03T19:56:52.089Z,100606.81
2022-12-03T19:59:18.880Z,100620.63
2022-12-03T20:01:45.719Z,100619.03
2022-12-03T20:04:12.854Z,100619.88
2022-12-03T20:06:47.672Z,100616.38
2022-12-03T20:09:20.082Z,100620.69
2022-12-03T20:11:46.745Z,100624.38
2022-12-03T20:14:15.521Z,100622.69
2022-12-03T20:16:44.309Z,100620.09
2022-12-03T20:19:15.019Z,100629.50
2022-12-03T20:21:42.058Z,100627.81
2022-12-03T20:24:15.094Z,100627.81
2022-12-03T20:26:42.146Z,100628.69
2022-12-03T20:29:08.767Z,100639.94
2022-12-03T20:31:37.005Z,100634.84
2022-12-03T20:34:04.284Z,100635.06
2022-12-03T20:36:32.496Z,100627.19
2022-12-03T20:39:02.779Z,100622.16
2022-12-03T20:41:30.813Z,100619.56
2022-12-03T20:43:57.523Z,100626.50
2022-12-03T20:46:31.194Z,100629.09
2022-12-03T20:49:01.320Z,100622.94
2022-12-03T20:51:30.185Z,100615.38
2022-12-03T20:53:59.738Z,100600.56
2022-12-03T20:56:35.150Z,100599.66
2022-12-03T20:59:07.628Z,100596.38
2022-12-03T21:01:38.554Z,100598.56
2022-12-03T21:04:06.633Z,100598.34
2022-12-03T21:06:36.047Z,100596.75
2022-12-03T21:09:05.570Z,100590.78
2022-12-03T21:11:34.060Z,100591.47
2022-12-03T21:14:00.994Z,100589.69
2022-12-03T21:17:05.806Z,100587.03
2022-12-03T21:19:22.467Z,100592.94
2022-12-03T21:21:49.260Z,100595.44
2022-12-03T21:24:16.294Z,100603.16
2022-12-03T21:26:42.924Z,100599.59
2022-12-03T21:29:09.775Z,100596.84
2022-12-03T21:31:37.985Z,100607.97
2022-12-03T21:34:05.252Z,100602.09
2022-12-03T21:36:32.441Z,100599.72
2022-12-03T21:38:59.181Z,100590.97
2022-12-03T21:41:26.217Z,100594.63
2022-12-03T21:43:52.910Z,100597.97
2022-12-03T21:47:09.454Z,100597.28
2022-12-03T21:49:05.992Z,100605.22
2022-12-03T21:51:32.843Z,100604.22
2022-12-03T21:54:00.072Z,100603.47
2022-12-03T21:56:26.988Z,100605.06
2022-12-03T21:58:53.570Z,100601.94
2022-12-03T22:01:26.975Z,100610.19
2022-12-03T22:03:53.690Z,100601.84
2022-12-03T22:06:20.506Z,100602.47
2022-12-03T22:08:47.413Z,100604.00
2022-12-03T22:11:22.192Z,100607.38
2022-12-03T22:13:49.363Z,100596.78
2022-12-03T22:16:20.102Z,100605.53
2022-12-03T22:18:47.433Z,100600.34
2022-12-03T22:21:17.072Z,100601.91
2022-12-03T22:23:43.967Z,100601.03
2022-12-03T22:26:27.965Z,100594.06
2022-12-03T22:28:54.664Z,100582.72
2022-12-03T22:31:21.424Z,100583.38
2022-12-03T22:33:50.116Z,100577.22
2022-12-03T22:36:21.458Z,100574.53
2022-12-03T22:38:49.224Z,100574.03
2022-12-03T22:41:16.196Z,100575.47
2022-12-03T22:43:43.455Z,100578.75
2022-12-03T22:46:12.916Z,100573.56
2022-12-03T22:48:41.090Z,100570.03
2022-12-03T22:51:17.806Z,100565.56
2022-12-03T22:53:44.584Z,100560.88
2022-12-03T22:56:11.860Z,100551.13
2022-12-03T22:58:39.728Z,100556.44
2022-12-03T23:01:06.774Z,100564.00
2022-12-03T23:03:33.871Z,100566.41
2022-12-03T23:06:00.774Z,100559.28
2022-12-03T23:08:29.283Z,100565.38
2022-12-03T23:11:00.789Z,100564.47
2022-12-03T23:13:27.509Z,100561.13
2022-12-03T23:15:54.247Z,100553.25
2022-12-03T23:18:21.373Z,100557.59
2022-12-03T23:20:52.587Z,100553.41
2022-12-03T23:23:20.870Z,100543.88
2022-12-03T23:26:18.801Z,100542.03
2022-12-03T23:28:47.426Z,100550.81
2022-12-03T23:31:41.727Z,100548.09
2022-12-03T23:34:08.484Z,100554.19
2022-12-03T23:36:35.257Z,100552.66
2022-12-03T23:39:02.025Z,100544.03
2022-12-03T23:44:10.262Z,100540.66
2022-12-03T23:46:39.724Z,100530.06
2022-12-03T23:49:06.435Z,100526.47
2022-12-03T23:54:04.873Z,100515.13
2022-12-03T23:56:31.617Z,100496.97
2022-12-03T23:58:58.983Z,100505.88
